KNZY

North Island NAS / Halsey Field Airport

San Diego, California, USA
METAR KNZY 191652Z 26008KT 10SM FEW250 24/18 A2994 RMK AO2 SLP140 T02390183 $
Observed Flight Rules
Aug-19 @ 16:52 UTC (20 minutes ago) Visual Flight Rules
Wind Visibility Clouds
260° at 8 knots 10 miles
  • Few at 25,000' AGL
Temperatures Readings
Current 24°C / 75°F
Dewpoint 18°C / 64°F
Humidity 69%
Altimeter 29.94" Hg
Pressure 1014 hPa
Elevation 8
METAR KNZY 191652Z 26008KT 10SM FEW250 24/18 A2994 RMK AO2 SLP140 T02390183 $
Observed Flight Rules
Aug-19 @ 16:52 UTC
(20 minutes ago)
VFR
Wind Visibility
260° at 8 knots 10 miles
Clouds
  • Few at 25,000' AGL
Temperature Dewpoint
24°C / 75°F 18°C / 64°F
Humidity Altimeter Pressure
69% 29.94" Hg 1014 hPa